sensor_id;sensor_type;location;lat;lon;timestamp;P1;durP1;ratioP1;P2;durP2;ratioP2
48588;SDS011;34369;51.174;6.738;2022-12-07T00:00:07;49.67;;;45.93;;
48588;SDS011;34369;51.174;6.738;2022-12-07T00:02:42;51.60;;;47.50;;
48588;SDS011;34369;51.174;6.738;2022-12-07T00:05:15;51.13;;;47.20;;
48588;SDS011;34369;51.174;6.738;2022-12-07T00:07:48;51.80;;;47.87;;
48588;SDS011;34369;51.174;6.738;2022-12-07T00:10:21;53.10;;;48.87;;
48588;SDS011;34369;51.174;6.738;2022-12-07T00:12:53;51.37;;;47.47;;
48588;SDS011;34369;51.174;6.738;2022-12-07T00:15:26;51.93;;;48.03;;
48588;SDS011;34369;51.174;6.738;2022-12-07T00:18:00;51.00;;;47.00;;
48588;SDS011;34369;51.174;6.738;2022-12-07T00:20:32;49.43;;;45.70;;
48588;SDS011;34369;51.174;6.738;2022-12-07T00:23:04;51.03;;;47.13;;
48588;SDS011;34369;51.174;6.738;2022-12-07T00:25:40;50.43;;;46.57;;
48588;SDS011;34369;51.174;6.738;2022-12-07T00:28:12;51.13;;;47.23;;
48588;SDS011;34369;51.174;6.738;2022-12-07T00:30:44;47.77;;;44.07;;
48588;SDS011;34369;51.174;6.738;2022-12-07T00:35:54;47.20;;;43.50;;
48588;SDS011;34369;51.174;6.738;2022-12-07T00:38:30;50.00;;;46.30;;
48588;SDS011;34369;51.174;6.738;2022-12-07T00:41:04;49.27;;;45.50;;
48588;SDS011;34369;51.174;6.738;2022-12-07T00:43:41;49.37;;;45.57;;
48588;SDS011;34369;51.174;6.738;2022-12-07T00:46:19;49.43;;;45.67;;
48588;SDS011;34369;51.174;6.738;2022-12-07T00:48:52;48.97;;;45.13;;
48588;SDS011;34369;51.174;6.738;2022-12-07T00:51:29;48.30;;;44.47;;
48588;SDS011;34369;51.174;6.738;2022-12-07T00:56:37;50.40;;;46.63;;
48588;SDS011;34369;51.174;6.738;2022-12-07T00:59:10;50.00;;;45.90;;
48588;SDS011;34369;51.174;6.738;2022-12-07T01:01:44;47.37;;;43.53;;
48588;SDS011;34369;51.174;6.738;2022-12-07T01:04:17;49.53;;;45.57;;
48588;SDS011;34369;51.174;6.738;2022-12-07T01:06:55;50.50;;;46.70;;
48588;SDS011;34369;51.174;6.738;2022-12-07T01:09:27;51.03;;;47.13;;
48588;SDS011;34369;51.174;6.738;2022-12-07T01:11:59;47.63;;;43.63;;
48588;SDS011;34369;51.174;6.738;2022-12-07T01:14:34;50.47;;;46.37;;
48588;SDS011;34369;51.174;6.738;2022-12-07T01:17:07;49.97;;;46.17;;
48588;SDS011;34369;51.174;6.738;2022-12-07T01:19:40;49.57;;;45.87;;
48588;SDS011;34369;51.174;6.738;2022-12-07T01:22:14;49.57;;;45.77;;
48588;SDS011;34369;51.174;6.738;2022-12-07T01:24:47;51.00;;;46.93;;
48588;SDS011;34369;51.174;6.738;2022-12-07T01:27:21;48.73;;;45.03;;
48588;SDS011;34369;51.174;6.738;2022-12-07T01:29:55;48.80;;;44.80;;
48588;SDS011;34369;51.174;6.738;2022-12-07T01:32:28;50.97;;;47.03;;
48588;SDS011;34369;51.174;6.738;2022-12-07T01:35:02;50.40;;;46.47;;
48588;SDS011;34369;51.174;6.738;2022-12-07T01:37:37;50.93;;;47.00;;
48588;SDS011;34369;51.174;6.738;2022-12-07T01:40:11;49.07;;;45.17;;
48588;SDS011;34369;51.174;6.738;2022-12-07T01:42:44;50.43;;;46.53;;
48588;SDS011;34369;51.174;6.738;2022-12-07T01:48:12;51.03;;;47.10;;
48588;SDS011;34369;51.174;6.738;2022-12-07T01:53:26;51.83;;;47.77;;
48588;SDS011;34369;51.174;6.738;2022-12-07T01:56:02;50.07;;;46.27;;
48588;SDS011;34369;51.174;6.738;2022-12-07T01:58:34;52.10;;;48.17;;
48588;SDS011;34369;51.174;6.738;2022-12-07T02:01:07;50.70;;;46.60;;
48588;SDS011;34369;51.174;6.738;2022-12-07T02:03:40;53.17;;;49.23;;
48588;SDS011;34369;51.174;6.738;2022-12-07T02:06:19;51.63;;;47.83;;
48588;SDS011;34369;51.174;6.738;2022-12-07T02:08:57;50.53;;;46.73;;
48588;SDS011;34369;51.174;6.738;2022-12-07T02:11:29;50.80;;;46.90;;
48588;SDS011;34369;51.174;6.738;2022-12-07T02:14:02;51.47;;;47.47;;
48588;SDS011;34369;51.174;6.738;2022-12-07T02:16:37;50.60;;;46.70;;
48588;SDS011;34369;51.174;6.738;2022-12-07T02:26:23;50.97;;;47.07;;
48588;SDS011;34369;51.174;6.738;2022-12-07T02:29:29;51.33;;;47.53;;
48588;SDS011;34369;51.174;6.738;2022-12-07T02:32:08;49.87;;;46.07;;
48588;SDS011;34369;51.174;6.738;2022-12-07T02:34:48;49.60;;;45.90;;
48588;SDS011;34369;51.174;6.738;2022-12-07T02:37:29;50.20;;;46.10;;
48588;SDS011;34369;51.174;6.738;2022-12-07T02:40:10;51.10;;;47.27;;
48588;SDS011;34369;51.174;6.738;2022-12-07T02:42:50;51.47;;;47.57;;
48588;SDS011;34369;51.174;6.738;2022-12-07T02:45:28;50.20;;;46.30;;
48588;SDS011;34369;51.174;6.738;2022-12-07T02:48:02;48.67;;;44.97;;
48588;SDS011;34369;51.174;6.738;2022-12-07T02:50:37;49.97;;;46.27;;
48588;SDS011;34369;51.174;6.738;2022-12-07T02:56:06;51.70;;;47.60;;
48588;SDS011;34369;51.174;6.738;2022-12-07T02:58:48;50.90;;;47.10;;
48588;SDS011;34369;51.174;6.738;2022-12-07T03:01:34;51.80;;;48.00;;
48588;SDS011;34369;51.174;6.738;2022-12-07T03:04:16;49.63;;;46.03;;
48588;SDS011;34369;51.174;6.738;2022-12-07T03:07:05;49.70;;;46.03;;
48588;SDS011;34369;51.174;6.738;2022-12-07T03:09:49;48.47;;;44.50;;
48588;SDS011;34369;51.174;6.738;2022-12-07T03:12:35;50.37;;;46.57;;
48588;SDS011;34369;51.174;6.738;2022-12-07T03:15:16;48.10;;;44.50;;
48588;SDS011;34369;51.174;6.738;2022-12-07T03:17:57;50.23;;;46.63;;
48588;SDS011;34369;51.174;6.738;2022-12-07T03:23:06;48.27;;;44.70;;
48588;SDS011;34369;51.174;6.738;2022-12-07T03:25:42;47.90;;;44.07;;
48588;SDS011;34369;51.174;6.738;2022-12-07T03:28:22;50.10;;;46.50;;
48588;SDS011;34369;51.174;6.738;2022-12-07T03:31:00;48.67;;;45.00;;
48588;SDS011;34369;51.174;6.738;2022-12-07T03:33:39;48.60;;;44.87;;
48588;SDS011;34369;51.174;6.738;2022-12-07T03:36:20;46.87;;;43.50;;
48588;SDS011;34369;51.174;6.738;2022-12-07T03:38:57;47.73;;;44.23;;
48588;SDS011;34369;51.174;6.738;2022-12-07T03:41:36;48.17;;;44.57;;
48588;SDS011;34369;51.174;6.738;2022-12-07T03:44:10;48.70;;;45.03;;
48588;SDS011;34369;51.174;6.738;2022-12-07T03:46:43;48.73;;;45.10;;
48588;SDS011;34369;51.174;6.738;2022-12-07T03:49:25;47.73;;;44.20;;
48588;SDS011;34369;51.174;6.738;2022-12-07T03:52:03;48.53;;;44.90;;
48588;SDS011;34369;51.174;6.738;2022-12-07T03:54:45;48.60;;;45.07;;
48588;SDS011;34369;51.174;6.738;2022-12-07T03:57:23;47.33;;;43.97;;
48588;SDS011;34369;51.174;6.738;2022-12-07T03:59:57;47.00;;;43.60;;
48588;SDS011;34369;51.174;6.738;2022-12-07T04:02:30;49.83;;;46.23;;
48588;SDS011;34369;51.174;6.738;2022-12-07T04:05:06;48.70;;;45.20;;
48588;SDS011;34369;51.174;6.738;2022-12-07T04:07:40;47.80;;;44.40;;
48588;SDS011;34369;51.174;6.738;2022-12-07T04:10:12;48.37;;;44.87;;
48588;SDS011;34369;51.174;6.738;2022-12-07T04:12:45;47.57;;;44.27;;
48588;SDS011;34369;51.174;6.738;2022-12-07T04:15:18;46.73;;;43.07;;
48588;SDS011;34369;51.174;6.738;2022-12-07T04:17:50;46.40;;;42.93;;
48588;SDS011;34369;51.174;6.738;2022-12-07T04:20:25;49.00;;;45.50;;
48588;SDS011;34369;51.174;6.738;2022-12-07T04:22:58;48.23;;;44.77;;
48588;SDS011;34369;51.174;6.738;2022-12-07T04:25:30;47.13;;;43.83;;
48588;SDS011;34369;51.174;6.738;2022-12-07T04:28:03;48.37;;;44.63;;
48588;SDS011;34369;51.174;6.738;2022-12-07T04:30:36;47.10;;;43.80;;
48588;SDS011;34369;51.174;6.738;2022-12-07T04:33:08;49.37;;;45.77;;
48588;SDS011;34369;51.174;6.738;2022-12-07T04:35:43;44.73;;;41.33;;
48588;SDS011;34369;51.174;6.738;2022-12-07T04:38:15;47.10;;;43.47;;
48588;SDS011;34369;51.174;6.738;2022-12-07T04:40:48;49.93;;;46.23;;
48588;SDS011;34369;51.174;6.738;2022-12-07T04:43:20;47.93;;;44.60;;
48588;SDS011;34369;51.174;6.738;2022-12-07T04:45:53;45.73;;;42.33;;
48588;SDS011;34369;51.174;6.738;2022-12-07T04:48:25;47.97;;;44.43;;
48588;SDS011;34369;51.174;6.738;2022-12-07T04:51:00;45.27;;;41.80;;
48588;SDS011;34369;51.174;6.738;2022-12-07T04:53:33;46.73;;;43.43;;
48588;SDS011;34369;51.174;6.738;2022-12-07T04:56:06;45.53;;;42.03;;
48588;SDS011;34369;51.174;6.738;2022-12-07T04:58:40;46.70;;;43.47;;
48588;SDS011;34369;51.174;6.738;2022-12-07T05:01:12;45.90;;;42.50;;
48588;SDS011;34369;51.174;6.738;2022-12-07T05:03:45;45.80;;;42.43;;
48588;SDS011;34369;51.174;6.738;2022-12-07T05:06:19;43.20;;;40.10;;
48588;SDS011;34369;51.174;6.738;2022-12-07T05:08:51;46.10;;;42.93;;
48588;SDS011;34369;51.174;6.738;2022-12-07T05:11:24;45.23;;;41.83;;
48588;SDS011;34369;51.174;6.738;2022-12-07T05:14:10;44.20;;;41.10;;
48588;SDS011;34369;51.174;6.738;2022-12-07T05:16:46;45.67;;;42.25;;
48588;SDS011;34369;51.174;6.738;2022-12-07T05:19:20;46.50;;;42.87;;
48588;SDS011;34369;51.174;6.738;2022-12-07T05:21:54;45.90;;;42.53;;
48588;SDS011;34369;51.174;6.738;2022-12-07T05:24:27;44.67;;;41.50;;
48588;SDS011;34369;51.174;6.738;2022-12-07T05:26:59;45.00;;;41.80;;
48588;SDS011;34369;51.174;6.738;2022-12-07T05:29:32;43.53;;;40.33;;
48588;SDS011;34369;51.174;6.738;2022-12-07T05:32:04;43.70;;;40.80;;
48588;SDS011;34369;51.174;6.738;2022-12-07T05:34:36;43.50;;;40.30;;
48588;SDS011;34369;51.174;6.738;2022-12-07T05:37:10;46.90;;;43.50;;
48588;SDS011;34369;51.174;6.738;2022-12-07T05:39:43;45.70;;;42.20;;
48588;SDS011;34369;51.174;6.738;2022-12-07T05:42:15;43.60;;;40.40;;
48588;SDS011;34369;51.174;6.738;2022-12-07T05:44:48;42.03;;;38.97;;
48588;SDS011;34369;51.174;6.738;2022-12-07T05:47:21;45.03;;;41.60;;
48588;SDS011;34369;51.174;6.738;2022-12-07T05:49:53;42.23;;;39.03;;
48588;SDS011;34369;51.174;6.738;2022-12-07T05:52:27;43.77;;;40.70;;
48588;SDS011;34369;51.174;6.738;2022-12-07T05:54:59;41.30;;;38.40;;
48588;SDS011;34369;51.174;6.738;2022-12-07T05:57:32;44.20;;;41.10;;
48588;SDS011;34369;51.174;6.738;2022-12-07T06:00:05;44.73;;;41.67;;
48588;SDS011;34369;51.174;6.738;2022-12-07T06:02:38;43.57;;;40.47;;
48588;SDS011;34369;51.174;6.738;2022-12-07T06:05:09;44.40;;;41.10;;
48588;SDS011;34369;51.174;6.738;2022-12-07T06:07:43;43.03;;;40.07;;
48588;SDS011;34369;51.174;6.738;2022-12-07T06:10:15;43.70;;;40.50;;
48588;SDS011;34369;51.174;6.738;2022-12-07T06:12:47;44.00;;;41.00;;
48588;SDS011;34369;51.174;6.738;2022-12-07T06:15:19;42.30;;;39.33;;
48588;SDS011;34369;51.174;6.738;2022-12-07T06:17:53;44.53;;;41.17;;
48588;SDS011;34369;51.174;6.738;2022-12-07T06:20:25;42.03;;;38.83;;
48588;SDS011;34369;51.174;6.738;2022-12-07T06:23:00;43.17;;;40.10;;
48588;SDS011;34369;51.174;6.738;2022-12-07T06:25:35;42.10;;;39.00;;
48588;SDS011;34369;51.174;6.738;2022-12-07T06:28:12;41.50;;;38.60;;
48588;SDS011;34369;51.174;6.738;2022-12-07T06:30:45;41.63;;;38.50;;
48588;SDS011;34369;51.174;6.738;2022-12-07T06:33:19;41.67;;;38.47;;
48588;SDS011;34369;51.174;6.738;2022-12-07T06:35:52;43.40;;;40.40;;
48588;SDS011;34369;51.174;6.738;2022-12-07T06:38:26;42.13;;;39.03;;
48588;SDS011;34369;51.174;6.738;2022-12-07T06:40:59;42.43;;;39.07;;
48588;SDS011;34369;51.174;6.738;2022-12-07T06:43:33;43.43;;;40.23;;
48588;SDS011;34369;51.174;6.738;2022-12-07T06:46:09;42.28;;;39.17;;
48588;SDS011;34369;51.174;6.738;2022-12-07T06:48:42;45.20;;;41.93;;
48588;SDS011;34369;51.174;6.738;2022-12-07T06:51:15;42.37;;;39.30;;
48588;SDS011;34369;51.174;6.738;2022-12-07T06:53:49;43.87;;;40.57;;
48588;SDS011;34369;51.174;6.738;2022-12-07T06:56:22;42.90;;;39.80;;
48588;SDS011;34369;51.174;6.738;2022-12-07T06:58:58;44.03;;;40.83;;
48588;SDS011;34369;51.174;6.738;2022-12-07T07:01:31;43.33;;;40.17;;
48588;SDS011;34369;51.174;6.738;2022-12-07T07:04:08;42.30;;;39.17;;
48588;SDS011;34369;51.174;6.738;2022-12-07T07:06:41;43.50;;;40.50;;
48588;SDS011;34369;51.174;6.738;2022-12-07T07:09:16;41.90;;;39.10;;
48588;SDS011;34369;51.174;6.738;2022-12-07T07:11:48;41.20;;;38.27;;
48588;SDS011;34369;51.174;6.738;2022-12-07T07:14:21;42.13;;;39.23;;
48588;SDS011;34369;51.174;6.738;2022-12-07T07:16:54;42.93;;;39.63;;
48588;SDS011;34369;51.174;6.738;2022-12-07T07:19:27;44.30;;;41.10;;
48588;SDS011;34369;51.174;6.738;2022-12-07T07:22:05;42.50;;;39.50;;
48588;SDS011;34369;51.174;6.738;2022-12-07T07:24:41;43.33;;;40.13;;
48588;SDS011;34369;51.174;6.738;2022-12-07T07:27:15;41.23;;;38.23;;
48588;SDS011;34369;51.174;6.738;2022-12-07T07:29:48;40.87;;;38.03;;
48588;SDS011;34369;51.174;6.738;2022-12-07T07:32:22;42.87;;;39.60;;
48588;SDS011;34369;51.174;6.738;2022-12-07T07:34:58;42.05;;;39.17;;
48588;SDS011;34369;51.174;6.738;2022-12-07T07:37:30;42.03;;;39.03;;
48588;SDS011;34369;51.174;6.738;2022-12-07T07:40:06;42.10;;;38.93;;
48588;SDS011;34369;51.174;6.738;2022-12-07T07:42:40;41.10;;;38.30;;
48588;SDS011;34369;51.174;6.738;2022-12-07T07:45:12;42.33;;;39.00;;
48588;SDS011;34369;51.174;6.738;2022-12-07T07:47:46;41.60;;;38.60;;
48588;SDS011;34369;51.174;6.738;2022-12-07T07:50:19;44.03;;;41.07;;
48588;SDS011;34369;51.174;6.738;2022-12-07T07:52:53;40.77;;;37.83;;
48588;SDS011;34369;51.174;6.738;2022-12-07T07:55:27;40.77;;;37.97;;
48588;SDS011;34369;51.174;6.738;2022-12-07T07:58:00;41.50;;;38.30;;
48588;SDS011;34369;51.174;6.738;2022-12-07T08:00:37;42.85;;;39.83;;
48588;SDS011;34369;51.174;6.738;2022-12-07T08:03:09;42.30;;;39.00;;
48588;SDS011;34369;51.174;6.738;2022-12-07T08:05:45;41.33;;;38.43;;
48588;SDS011;34369;51.174;6.738;2022-12-07T08:08:18;42.30;;;39.13;;
48588;SDS011;34369;51.174;6.738;2022-12-07T08:10:52;44.50;;;41.40;;
48588;SDS011;34369;51.174;6.738;2022-12-07T08:13:25;42.13;;;39.03;;
48588;SDS011;34369;51.174;6.738;2022-12-07T08:15:58;40.53;;;37.43;;
48588;SDS011;34369;51.174;6.738;2022-12-07T08:18:30;41.87;;;38.57;;
48588;SDS011;34369;51.174;6.738;2022-12-07T08:21:12;42.57;;;39.07;;
48588;SDS011;34369;51.174;6.738;2022-12-07T08:23:46;43.27;;;40.07;;
48588;SDS011;34369;51.174;6.738;2022-12-07T08:26:20;41.63;;;38.63;;
48588;SDS011;34369;51.174;6.738;2022-12-07T08:28:54;43.57;;;40.50;;
48588;SDS011;34369;51.174;6.738;2022-12-07T08:31:27;42.13;;;39.07;;
48588;SDS011;34369;51.174;6.738;2022-12-07T08:34:00;42.00;;;38.83;;
48588;SDS011;34369;51.174;6.738;2022-12-07T08:36:33;42.83;;;39.83;;
48588;SDS011;34369;51.174;6.738;2022-12-07T08:39:10;42.20;;;39.20;;
48588;SDS011;34369;51.174;6.738;2022-12-07T08:41:45;42.17;;;39.13;;
48588;SDS011;34369;51.174;6.738;2022-12-07T08:44:18;41.20;;;38.33;;
48588;SDS011;34369;51.174;6.738;2022-12-07T08:46:51;42.77;;;39.63;;
48588;SDS011;34369;51.174;6.738;2022-12-07T08:49:30;40.77;;;37.83;;
48588;SDS011;34369;51.174;6.738;2022-12-07T08:52:06;44.40;;;41.20;;
48588;SDS011;34369;51.174;6.738;2022-12-07T08:54:39;43.93;;;40.87;;
48588;SDS011;34369;51.174;6.738;2022-12-07T08:57:15;43.00;;;39.83;;
48588;SDS011;34369;51.174;6.738;2022-12-07T08:59:50;44.17;;;41.07;;
48588;SDS011;34369;51.174;6.738;2022-12-07T09:02:23;43.43;;;40.30;;
48588;SDS011;34369;51.174;6.738;2022-12-07T09:04:56;41.97;;;38.90;;
48588;SDS011;34369;51.174;6.738;2022-12-07T09:07:29;43.03;;;39.87;;
48588;SDS011;34369;51.174;6.738;2022-12-07T09:10:03;42.57;;;39.40;;
48588;SDS011;34369;51.174;6.738;2022-12-07T09:12:38;43.60;;;40.17;;
48588;SDS011;34369;51.174;6.738;2022-12-07T09:15:10;43.60;;;40.37;;
48588;SDS011;34369;51.174;6.738;2022-12-07T09:17:43;44.20;;;40.87;;
48588;SDS011;34369;51.174;6.738;2022-12-07T09:20:17;43.13;;;40.13;;
48588;SDS011;34369;51.174;6.738;2022-12-07T09:22:50;43.33;;;39.90;;
48588;SDS011;34369;51.174;6.738;2022-12-07T09:25:23;43.83;;;40.63;;
48588;SDS011;34369;51.174;6.738;2022-12-07T09:27:58;42.37;;;39.17;;
48588;SDS011;34369;51.174;6.738;2022-12-07T09:30:30;42.80;;;39.47;;
48588;SDS011;34369;51.174;6.738;2022-12-07T09:33:04;44.53;;;41.03;;
48588;SDS011;34369;51.174;6.738;2022-12-07T09:35:36;45.27;;;41.73;;
48588;SDS011;34369;51.174;6.738;2022-12-07T09:38:10;44.03;;;40.80;;
48588;SDS011;34369;51.174;6.738;2022-12-07T09:40:46;44.10;;;40.57;;
48588;SDS011;34369;51.174;6.738;2022-12-07T09:43:29;43.27;;;39.87;;
48588;SDS011;34369;51.174;6.738;2022-12-07T09:46:03;43.80;;;40.40;;
48588;SDS011;34369;51.174;6.738;2022-12-07T09:48:36;44.13;;;40.83;;
48588;SDS011;34369;51.174;6.738;2022-12-07T09:51:13;43.37;;;40.03;;
48588;SDS011;34369;51.174;6.738;2022-12-07T09:53:48;46.03;;;42.87;;
48588;SDS011;34369;51.174;6.738;2022-12-07T09:56:21;43.57;;;40.37;;
48588;SDS011;34369;51.174;6.738;2022-12-07T09:58:58;43.23;;;39.77;;
48588;SDS011;34369;51.174;6.738;2022-12-07T10:01:33;42.27;;;38.87;;
48588;SDS011;34369;51.174;6.738;2022-12-07T10:04:09;44.07;;;40.77;;
48588;SDS011;34369;51.174;6.738;2022-12-07T10:06:46;43.90;;;40.77;;
48588;SDS011;34369;51.174;6.738;2022-12-07T10:09:21;41.07;;;37.97;;
48588;SDS011;34369;51.174;6.738;2022-12-07T10:11:58;42.07;;;39.17;;
48588;SDS011;34369;51.174;6.738;2022-12-07T10:14:36;40.57;;;37.37;;
48588;SDS011;34369;51.174;6.738;2022-12-07T10:17:30;39.63;;;36.67;;
48588;SDS011;34369;51.174;6.738;2022-12-07T10:20:15;41.90;;;38.40;;
48588;SDS011;34369;51.174;6.738;2022-12-07T10:22:54;41.40;;;38.33;;
48588;SDS011;34369;51.174;6.738;2022-12-07T10:25:35;43.43;;;40.03;;
48588;SDS011;34369;51.174;6.738;2022-12-07T10:28:12;40.60;;;37.60;;
48588;SDS011;34369;51.174;6.738;2022-12-07T10:30:55;40.65;;;37.47;;
48588;SDS011;34369;51.174;6.738;2022-12-07T10:33:35;41.33;;;38.42;;
48588;SDS011;34369;51.174;6.738;2022-12-07T10:36:15;38.63;;;35.83;;
48588;SDS011;34369;51.174;6.738;2022-12-07T10:38:53;40.33;;;37.33;;
48588;SDS011;34369;51.174;6.738;2022-12-07T10:41:35;39.17;;;36.27;;
48588;SDS011;34369;51.174;6.738;2022-12-07T10:44:09;39.40;;;36.47;;
48588;SDS011;34369;51.174;6.738;2022-12-07T10:47:03;40.83;;;37.73;;
48588;SDS011;34369;51.174;6.738;2022-12-07T10:50:11;40.30;;;36.87;;
48588;SDS011;34369;51.174;6.738;2022-12-07T10:53:09;40.50;;;37.57;;
48588;SDS011;34369;51.174;6.738;2022-12-07T10:56:15;40.50;;;37.57;;
48588;SDS011;34369;51.174;6.738;2022-12-07T10:59:36;39.13;;;36.23;;
48588;SDS011;34369;51.174;6.738;2022-12-07T11:05:49;40.72;;;37.35;;
48588;SDS011;34369;51.174;6.738;2022-12-07T11:08:38;42.80;;;39.67;;
48588;SDS011;34369;51.174;6.738;2022-12-07T11:11:24;39.80;;;36.70;;
48588;SDS011;34369;51.174;6.738;2022-12-07T11:14:09;41.20;;;38.00;;
48588;SDS011;34369;51.174;6.738;2022-12-07T11:16:55;39.60;;;36.40;;
48588;SDS011;34369;51.174;6.738;2022-12-07T11:19:59;37.90;;;35.20;;
48588;SDS011;34369;51.174;6.738;2022-12-07T11:22:46;36.90;;;33.83;;
48588;SDS011;34369;51.174;6.738;2022-12-07T11:25:31;37.87;;;34.83;;
48588;SDS011;34369;51.174;6.738;2022-12-07T11:28:13;37.37;;;34.57;;
48588;SDS011;34369;51.174;6.738;2022-12-07T11:31:01;37.90;;;34.83;;
48588;SDS011;34369;51.174;6.738;2022-12-07T11:33:45;40.23;;;37.23;;
48588;SDS011;34369;51.174;6.738;2022-12-07T11:36:29;38.33;;;35.53;;
48588;SDS011;34369;51.174;6.738;2022-12-07T11:39:12;37.77;;;35.07;;
48588;SDS011;34369;51.174;6.738;2022-12-07T11:41:57;37.90;;;35.10;;
48588;SDS011;34369;51.174;6.738;2022-12-07T11:44:37;38.87;;;35.87;;
48588;SDS011;34369;51.174;6.738;2022-12-07T11:47:23;38.93;;;36.03;;
48588;SDS011;34369;51.174;6.738;2022-12-07T11:50:09;40.60;;;37.50;;
48588;SDS011;34369;51.174;6.738;2022-12-07T11:52:59;41.17;;;37.80;;
48588;SDS011;34369;51.174;6.738;2022-12-07T11:55:40;41.10;;;38.00;;
48588;SDS011;34369;51.174;6.738;2022-12-07T11:58:34;42.60;;;39.20;;
48588;SDS011;34369;51.174;6.738;2022-12-07T12:01:26;43.67;;;40.30;;
48588;SDS011;34369;51.174;6.738;2022-12-07T12:04:27;42.33;;;39.10;;
48588;SDS011;34369;51.174;6.738;2022-12-07T12:07:10;42.17;;;38.87;;
48588;SDS011;34369;51.174;6.738;2022-12-07T12:09:49;41.50;;;38.33;;
48588;SDS011;34369;51.174;6.738;2022-12-07T12:12:32;42.07;;;38.63;;
48588;SDS011;34369;51.174;6.738;2022-12-07T12:15:24;41.27;;;37.97;;
48588;SDS011;34369;51.174;6.738;2022-12-07T12:21:13;39.73;;;36.80;;
48588;SDS011;34369;51.174;6.738;2022-12-07T12:23:55;40.13;;;37.07;;
48588;SDS011;34369;51.174;6.738;2022-12-07T12:26:35;38.13;;;35.07;;
48588;SDS011;34369;51.174;6.738;2022-12-07T12:29:18;40.58;;;37.58;;
48588;SDS011;34369;51.174;6.738;2022-12-07T12:32:04;39.00;;;35.90;;
48588;SDS011;34369;51.174;6.738;2022-12-07T12:35:00;40.40;;;37.40;;
48588;SDS011;34369;51.174;6.738;2022-12-07T12:37:53;38.57;;;35.90;;
48588;SDS011;34369;51.174;6.738;2022-12-07T12:40:43;37.07;;;34.20;;
48588;SDS011;34369;51.174;6.738;2022-12-07T12:46:36;34.87;;;32.27;;
48588;SDS011;34369;51.174;6.738;2022-12-07T12:58:43;34.57;;;32.00;;
48588;SDS011;34369;51.174;6.738;2022-12-07T13:04:29;34.77;;;32.40;;
48588;SDS011;34369;51.174;6.738;2022-12-07T13:10:39;34.63;;;32.13;;
48588;SDS011;34369;51.174;6.738;2022-12-07T13:13:34;35.33;;;32.73;;
48588;SDS011;34369;51.174;6.738;2022-12-07T13:22:52;35.37;;;32.60;;
48588;SDS011;34369;51.174;6.738;2022-12-07T13:25:31;34.83;;;32.30;;
48588;SDS011;34369;51.174;6.738;2022-12-07T13:28:16;35.90;;;33.27;;
48588;SDS011;34369;51.174;6.738;2022-12-07T13:30:54;33.80;;;31.23;;
48588;SDS011;34369;51.174;6.738;2022-12-07T13:33:43;35.87;;;33.37;;
48588;SDS011;34369;51.174;6.738;2022-12-07T13:36:24;39.47;;;36.37;;
48588;SDS011;34369;51.174;6.738;2022-12-07T13:39:15;34.37;;;31.73;;
48588;SDS011;34369;51.174;6.738;2022-12-07T13:41:52;35.67;;;33.07;;
48588;SDS011;34369;51.174;6.738;2022-12-07T13:44:27;35.93;;;33.27;;
48588;SDS011;34369;51.174;6.738;2022-12-07T13:47:06;36.40;;;33.83;;
48588;SDS011;34369;51.174;6.738;2022-12-07T13:49:47;36.97;;;34.30;;
48588;SDS011;34369;51.174;6.738;2022-12-07T13:52:23;35.80;;;33.30;;
48588;SDS011;34369;51.174;6.738;2022-12-07T13:55:00;33.93;;;31.63;;
48588;SDS011;34369;51.174;6.738;2022-12-07T13:57:45;35.90;;;33.13;;
48588;SDS011;34369;51.174;6.738;2022-12-07T14:00:22;34.78;;;32.33;;
48588;SDS011;34369;51.174;6.738;2022-12-07T14:02:57;36.23;;;33.53;;
48588;SDS011;34369;51.174;6.738;2022-12-07T14:05:33;37.73;;;35.03;;
48588;SDS011;34369;51.174;6.738;2022-12-07T14:08:22;35.63;;;32.63;;
48588;SDS011;34369;51.174;6.738;2022-12-07T14:10:55;34.80;;;32.22;;
48588;SDS011;34369;51.174;6.738;2022-12-07T14:13:30;35.90;;;33.07;;
48588;SDS011;34369;51.174;6.738;2022-12-07T14:16:17;36.50;;;33.90;;
48588;SDS011;34369;51.174;6.738;2022-12-07T14:18:59;35.27;;;32.67;;
48588;SDS011;34369;51.174;6.738;2022-12-07T14:21:34;35.33;;;32.93;;
48588;SDS011;34369;51.174;6.738;2022-12-07T14:24:12;35.67;;;33.17;;
48588;SDS011;34369;51.174;6.738;2022-12-07T14:26:49;36.07;;;33.30;;
48588;SDS011;34369;51.174;6.738;2022-12-07T14:29:38;37.20;;;34.43;;
48588;SDS011;34369;51.174;6.738;2022-12-07T14:32:17;34.00;;;31.70;;
48588;SDS011;34369;51.174;6.738;2022-12-07T14:35:02;34.93;;;32.40;;
48588;SDS011;34369;51.174;6.738;2022-12-07T14:37:43;35.87;;;33.43;;
48588;SDS011;34369;51.174;6.738;2022-12-07T14:40:20;36.80;;;33.88;;
48588;SDS011;34369;51.174;6.738;2022-12-07T14:42:56;35.00;;;32.50;;
48588;SDS011;34369;51.174;6.738;2022-12-07T14:45:32;36.07;;;33.43;;
48588;SDS011;34369;51.174;6.738;2022-12-07T14:48:06;35.83;;;33.23;;
48588;SDS011;34369;51.174;6.738;2022-12-07T14:50:43;36.63;;;34.08;;
48588;SDS011;34369;51.174;6.738;2022-12-07T14:53:23;37.77;;;35.17;;
48588;SDS011;34369;51.174;6.738;2022-12-07T14:56:03;35.77;;;33.07;;
48588;SDS011;34369;51.174;6.738;2022-12-07T14:58:37;34.93;;;32.27;;
48588;SDS011;34369;51.174;6.738;2022-12-07T15:01:09;35.13;;;32.43;;
48588;SDS011;34369;51.174;6.738;2022-12-07T15:03:42;34.70;;;31.80;;
48588;SDS011;34369;51.174;6.738;2022-12-07T15:06:38;34.00;;;31.07;;
48588;SDS011;34369;51.174;6.738;2022-12-07T15:09:14;34.47;;;31.87;;
48588;SDS011;34369;51.174;6.738;2022-12-07T15:11:50;35.83;;;33.33;;
48588;SDS011;34369;51.174;6.738;2022-12-07T15:14:22;35.97;;;33.17;;
48588;SDS011;34369;51.174;6.738;2022-12-07T15:16:56;37.17;;;34.10;;
48588;SDS011;34369;51.174;6.738;2022-12-07T15:19:29;38.50;;;35.73;;
48588;SDS011;34369;51.174;6.738;2022-12-07T15:22:02;37.80;;;35.17;;
48588;SDS011;34369;51.174;6.738;2022-12-07T15:24:35;37.80;;;35.10;;
48588;SDS011;34369;51.174;6.738;2022-12-07T15:27:09;38.43;;;35.53;;
48588;SDS011;34369;51.174;6.738;2022-12-07T15:29:41;38.53;;;35.53;;
48588;SDS011;34369;51.174;6.738;2022-12-07T15:32:14;39.47;;;36.73;;
48588;SDS011;34369;51.174;6.738;2022-12-07T15:34:47;38.00;;;35.23;;
48588;SDS011;34369;51.174;6.738;2022-12-07T15:37:20;37.57;;;34.83;;
48588;SDS011;34369;51.174;6.738;2022-12-07T15:39:53;36.67;;;33.97;;
48588;SDS011;34369;51.174;6.738;2022-12-07T15:42:27;39.57;;;36.73;;
48588;SDS011;34369;51.174;6.738;2022-12-07T15:44:59;37.37;;;34.70;;
48588;SDS011;34369;51.174;6.738;2022-12-07T15:47:35;39.07;;;36.13;;
48588;SDS011;34369;51.174;6.738;2022-12-07T15:50:11;37.33;;;34.67;;
48588;SDS011;34369;51.174;6.738;2022-12-07T15:52:46;38.28;;;35.58;;
48588;SDS011;34369;51.174;6.738;2022-12-07T15:55:19;36.83;;;34.30;;
48588;SDS011;34369;51.174;6.738;2022-12-07T15:57:56;37.50;;;34.97;;
48588;SDS011;34369;51.174;6.738;2022-12-07T16:00:29;37.67;;;34.93;;
48588;SDS011;34369;51.174;6.738;2022-12-07T16:03:01;37.97;;;35.13;;
48588;SDS011;34369;51.174;6.738;2022-12-07T16:05:34;37.63;;;34.93;;
48588;SDS011;34369;51.174;6.738;2022-12-07T16:08:06;37.23;;;34.67;;
48588;SDS011;34369;51.174;6.738;2022-12-07T16:10:39;39.17;;;36.47;;
48588;SDS011;34369;51.174;6.738;2022-12-07T16:13:14;37.90;;;35.17;;